Terminal Aerodrome Forecast
Issued by NWS Los Angeles, CA

Home | Current Version | Previous Version | Text Only | Print | Product List | Glossary On
Versions: 1 2 3 4 5 6 7 8 9 10 11 12 13 14 15 16 17 18 19 20 21 22 23 24 25 26 27 28 29 30 31
000
FTUS46 KLOX 311139
TAFSMX
TAF
KSMX 311139Z 3112/0112 VRB05KT 1SM BR VV002
      TEMPO 3112/3116 1/4SM FG VV001
     FM311600 VRB05KT 6SM BR OVC008
     FM311900 29010KT P6SM SCT010
     FM010300 VRB05KT P6SM BKN007
     FM011000 VRB05KT 3SM BR OVC002=

USA.gov is the U.S. government's official web portal to all federal, state and local government web resources and services.